createdAt,value
2022-08-20T00:01:16.219Z,8.43
2022-08-20T00:06:23.259Z,9.50
2022-08-20T00:08:51.099Z,7.50
2022-08-20T00:11:24.251Z,7.45
2022-08-20T00:13:57.650Z,6.13
2022-08-20T00:16:27.174Z,6.70
2022-08-20T00:18:54.305Z,6.55
2022-08-20T00:21:23.197Z,7.00
2022-08-20T00:23:52.959Z,5.95
2022-08-20T00:26:21.215Z,6.60
2022-08-20T00:28:48.480Z,5.80
2022-08-20T00:31:23.039Z,6.40
2022-08-20T00:33:50.821Z,5.57
2022-08-20T00:36:18.021Z,7.32
2022-08-20T00:38:46.849Z,5.20
2022-08-20T00:41:23.105Z,4.90
2022-08-20T00:44:16.590Z,4.53
2022-08-20T00:46:45.288Z,5.43
2022-08-20T00:49:31.332Z,5.60
2022-08-20T00:52:09.128Z,5.40
2022-08-20T00:54:44.368Z,5.93
2022-08-20T00:57:25.574Z,5.88
2022-08-20T00:59:53.168Z,5.45
2022-08-20T01:02:23.321Z,4.72
2022-08-20T01:04:54.623Z,4.55
2022-08-20T01:07:32.253Z,3.90
2022-08-20T01:10:00.756Z,4.35
2022-08-20T01:12:29.649Z,4.10
2022-08-20T01:15:00.272Z,4.65
2022-08-20T01:17:30.302Z,4.80
2022-08-20T01:20:06.413Z,4.68
2022-08-20T01:23:30.271Z,4.63
2022-08-20T01:26:14.922Z,4.82
2022-08-20T01:28:50.345Z,4.78
2022-08-20T01:31:27.529Z,4.45
2022-08-20T04:41:25.018Z,12.90
2022-08-20T04:48:50.401Z,13.23
2022-08-20T04:51:18.779Z,13.55
2022-08-20T04:53:51.858Z,13.10
2022-08-20T04:56:23.304Z,12.45
2022-08-20T04:58:51.232Z,10.27
2022-08-20T05:01:18.601Z,13.15
2022-08-20T05:03:47.909Z,12.80
2022-08-20T05:06:16.288Z,12.77
2022-08-20T05:08:44.138Z,11.35
2022-08-20T05:11:30.175Z,13.00
2022-08-20T05:13:58.786Z,10.55
2022-08-20T05:16:25.819Z,10.93
2022-08-20T05:18:53.080Z,13.18
2022-08-20T05:21:21.246Z,14.75
2022-08-20T05:23:49.295Z,16.02
2022-08-20T05:26:17.128Z,12.43
2022-08-20T05:28:51.202Z,11.68
2022-08-20T05:31:31.607Z,14.77
2022-08-20T05:34:10.342Z,10.00
2022-08-20T05:36:50.560Z,12.20
2022-08-20T05:39:21.599Z,13.88
2022-08-20T05:41:52.232Z,11.93
2022-08-20T05:44:19.849Z,11.65
2022-08-20T05:46:48.141Z,13.00
2022-08-20T05:49:22.214Z,10.07
2022-08-20T05:51:50.903Z,12.43
2022-08-20T05:54:17.750Z,12.65
2022-08-20T05:56:44.627Z,14.43
2022-08-20T05:59:13.935Z,9.85
2022-08-20T06:01:42.105Z,11.82
2022-08-20T06:04:26.707Z,8.38
2022-08-20T06:07:02.479Z,10.35
2022-08-20T06:09:32.178Z,11.65
2022-08-20T06:12:06.042Z,12.48
2022-08-20T06:14:33.748Z,14.57
2022-08-20T06:17:22.330Z,11.38
2022-08-20T06:19:52.400Z,11.82
2022-08-20T06:22:24.434Z,10.40
2022-08-20T06:24:55.099Z,9.50
2022-08-20T06:27:22.493Z,11.83
2022-08-20T06:29:50.550Z,12.65
2022-08-20T06:32:19.785Z,10.23
2022-08-20T06:34:55.731Z,10.05
2022-08-20T06:37:31.099Z,8.70
2022-08-20T06:40:06.092Z,10.48
2022-08-20T06:42:33.195Z,13.10
2022-08-20T06:45:00.518Z,11.93
2022-08-20T06:47:27.362Z,11.15
2022-08-20T06:49:54.196Z,10.07
2022-08-20T06:52:27.072Z,11.57
2022-08-20T06:55:10.692Z,9.95
2022-08-20T06:57:38.732Z,8.77
2022-08-20T07:00:09.336Z,9.02
2022-08-20T07:02:37.328Z,10.50
2022-08-20T07:05:05.304Z,9.75
2022-08-20T07:07:32.859Z,11.90
2022-08-20T07:10:09.109Z,9.20
2022-08-20T07:12:36.407Z,10.80
2022-08-20T07:15:10.151Z,8.60
2022-08-20T07:17:37.984Z,9.65
2022-08-20T07:20:15.346Z,10.55
2022-08-20T07:22:43.319Z,8.38
2022-08-20T07:25:14.338Z,9.82
2022-08-20T07:27:42.971Z,8.03
2022-08-20T07:30:32.924Z,6.65
2022-08-20T07:33:19.826Z,7.53
2022-08-20T07:35:49.008Z,7.80
2022-08-20T07:38:24.797Z,8.25
2022-08-20T07:41:04.947Z,8.00
2022-08-20T07:43:33.367Z,9.43
2022-08-20T07:46:02.830Z,6.65
2022-08-20T07:48:32.325Z,8.45
2022-08-20T07:51:04.295Z,7.10
2022-08-20T07:53:35.819Z,5.55
2022-08-20T07:56:07.937Z,4.80
2022-08-20T07:58:36.634Z,6.40
2022-08-20T08:01:05.788Z,4.40
2022-08-20T08:03:39.612Z,6.33
2022-08-20T08:06:09.579Z,6.10
2022-08-20T08:08:36.714Z,5.03
2022-08-20T08:11:04.517Z,6.07
2022-08-20T08:13:36.338Z,7.00
2022-08-20T08:16:06.558Z,7.07
2022-08-20T08:18:45.804Z,6.30
2022-08-20T08:21:13.188Z,8.45
2022-08-20T08:28:45.604Z,5.67
2022-08-20T08:31:12.660Z,6.25
2022-08-20T08:33:40.755Z,6.45
2022-08-20T08:36:12.863Z,6.73
2022-08-20T08:38:44.244Z,5.20
2022-08-20T08:41:24.516Z,5.30
2022-08-20T08:46:26.804Z,7.40
